| Date | Time | Temp. (oF) | Dew Point (oF) | Rel. Hum. (%) | Press. (in.) | Wind Dir. | Wind Speed (mph) | Hourly Rainfall (in.) |
|
|---|---|---|---|---|---|---|---|---|---|
| 1 | 11/15 | 00:00 | 50 | 37 | 63 | 30.32 | NE | 2 | 0.00 |
| 2 | 11/14 | 23:00 | 47 | 40 | 78 | 30.33 | ENE | 3 | 0.00 |
| 3 | 11/14 | 22:00 | 46 | 39 | 78 | 30.35 | NE | 0 | 0.00 |
| 4 | 11/14 | 21:00 | 47 | 38 | 72 | 30.36 | NW | 0 | 0.00 |
| 5 | 11/14 | 20:00 | 48 | 37 | 68 | 30.35 | NW | 1 | 0.00 |
| 6 | 11/14 | 19:00 | 51 | 37 | 60 | 30.34 | NW | 0 | 0.00 |
| 7 | 11/14 | 18:00 | 54 | 37 | 54 | 30.33 | WNW | 1 | 0.00 |
| 8 | 11/14 | 17:00 | 58 | 36 | 44 | 30.32 | WNW | 2 | 0.00 |
| 9 | 11/14 | 16:00 | 60 | 36 | 41 | 30.32 | NW | 2 | 0.00 |
| 10 | 11/14 | 15:00 | 61 | 36 | 40 | 30.31 | NW | 5 | 0.00 |
| 11 | 11/14 | 14:00 | 62 | 37 | 40 | 30.31 | NW | 3 | 0.00 |
| 12 | 11/14 | 13:00 | 61 | 37 | 42 | 30.31 | NW | 4 | 0.00 |
| 13 | 11/14 | 12:00 | 60 | 36 | 42 | 30.32 | WNW | 7 | 0.00 |
| 14 | 11/14 | 11:00 | 59 | 36 | 44 | 30.34 | WNW | 12 | 0.00 |
| 15 | 11/14 | 10:00 | 58 | 37 | 46 | 30.34 | NW | 7 | 0.00 |
| 16 | 11/14 | 09:00 | 58 | 42 | 57 | 30.32 | NW | 9 | 0.00 |
| 17 | 11/14 | 08:00 | 53 | 52 | 97 | 30.29 | NW | 2 | 0.00 |
| 18 | 11/14 | 07:00 | 50 | 48 | 96 | 30.24 | SW | 0 | 0.00 |
| 19 | 11/14 | 06:00 | 51 | 49 | 93 | 30.20 | S | 0 | 0.00 |
| 20 | 11/14 | 05:00 | 52 | 48 | 89 | 30.19 | S | 0 | 0.00 |
| 21 | 11/14 | 04:00 | 54 | 49 | 84 | 30.17 | S | 0 | 0.00 |
| 22 | 11/14 | 03:00 | 56 | 50 | 82 | 30.16 | SE | 0 | 0.00 |
| 23 | 11/14 | 02:00 | 57 | 50 | 80 | 30.16 | SE | 1 | 0.00 |
| 24 | 11/14 | 01:00 | 58 | 51 | 78 | 30.14 | SE | 0 | 0.00 |